Time;durP1;ratioP1;P1;durP2;ratioP2;P2;SDS_P1;SDS_P2;PMS_P1;PMS_P2;Temp;Humidity;BMP_temperature;BMP_pressure;BME280_temperature;BME280_humidity;BME280_pressure;Samples;Min_cycle;Max_cycle;Signal;HPM_P1;HPM_P2
2023/08/05 00:01:20;;;;;;;1.20;1.10;;;20.30;99.90;;;;;;5145626;27;20251;-66
2023/08/05 00:03:47;;;;;;;1.77;1.67;;;20.30;99.90;;;;;;5146637;27;20194;-67
2023/08/05 00:06:14;;;;;;;1.40;1.30;;;20.30;99.90;;;;;;5128018;27;20319;-66
2023/08/05 00:08:41;;;;;;;5.10;1.20;;;20.30;99.90;;;;;;5147789;27;20201;-66
2023/08/05 00:11:09;;;;;;;1.30;1.20;;;20.20;99.90;;;;;;5150631;27;20198;-66
2023/08/05 00:13:37;;;;;;;1.50;1.40;;;20.20;99.90;;;;;;5128356;27;20266;-66
2023/08/05 00:16:05;;;;;;;1.98;1.40;;;20.10;99.90;;;;;;5152163;27;20198;-66
2023/08/05 00:18:32;;;;;;;1.65;1.55;;;20.20;99.90;;;;;;5155160;27;20202;-65
2023/08/05 00:20:59;;;;;;;1.13;1.13;;;20.20;99.90;;;;;;5148232;27;20222;-66
2023/08/05 00:23:26;;;;;;;1.08;1.08;;;20.10;99.90;;;;;;5153154;27;20201;-66
2023/08/05 00:25:53;;;;;;;1.75;1.25;;;20.10;99.90;;;;;;5153642;27;20243;-66
2023/08/05 00:28:21;;;;;;;1.50;1.40;;;20.10;99.90;;;;;;5153194;27;20216;-65
2023/08/05 00:30:49;;;;;;;1.60;1.50;;;20.10;99.90;;;;;;5153153;27;20224;-66
2023/08/05 00:33:16;;;;;;;1.40;1.30;;;20.10;99.90;;;;;;5153082;27;20194;-66
2023/08/05 00:35:43;;;;;;;1.33;1.25;;;20.10;99.90;;;;;;5132247;27;20203;-65
2023/08/05 00:38:10;;;;;;;1.30;1.30;;;20.10;99.90;;;;;;5152619;27;20233;-66
2023/08/05 00:40:37;;;;;;;1.48;1.38;;;20.00;99.90;;;;;;5154864;27;20191;-67
2023/08/05 00:43:04;;;;;;;1.45;1.45;;;20.00;99.90;;;;;;5149620;27;20194;-68
2023/08/05 00:45:32;;;;;;;2.15;1.48;;;20.10;99.90;;;;;;5153389;27;20194;-66
2023/08/05 00:48:00;;;;;;;1.30;1.30;;;20.10;99.90;;;;;;5158853;27;20554;-65
2023/08/05 00:50:28;;;;;;;1.38;1.27;;;20.10;99.90;;;;;;5155148;27;20194;-65
2023/08/05 00:52:55;;;;;;;1.20;1.20;;;20.10;99.90;;;;;;5156663;27;20222;-64
2023/08/05 00:55:23;;;;;;;1.33;1.20;;;20.10;99.90;;;;;;5136475;27;20775;-66
2023/08/05 00:57:50;;;;;;;1.77;1.67;;;20.10;99.90;;;;;;5150125;27;20213;-65
2023/08/05 01:00:17;;;;;;;1.38;1.38;;;20.10;99.90;;;;;;5155226;27;20194;-66
2023/08/05 01:02:45;;;;;;;1.67;1.58;;;20.10;99.90;;;;;;5153560;27;20199;-65
2023/08/05 01:05:13;;;;;;;1.38;1.38;;;20.00;99.90;;;;;;5147156;27;20298;-66
2023/08/05 01:07:42;;;;;;;1.30;1.20;;;20.00;99.90;;;;;;5153091;27;20214;-66
2023/08/05 01:10:10;;;;;;;1.48;1.38;;;19.80;99.90;;;;;;5154382;27;20203;-66
2023/08/05 01:12:37;;;;;;;1.40;1.30;;;19.80;99.90;;;;;;5131287;27;20225;-66
2023/08/05 01:15:05;;;;;;;1.40;1.30;;;19.80;99.90;;;;;;5153783;27;20186;-66
2023/08/05 01:17:32;;;;;;;1.27;1.20;;;19.80;99.90;;;;;;5143564;27;20211;-67
2023/08/05 01:20:01;;;;;;;1.42;1.33;;;19.80;99.90;;;;;;5146114;27;20314;-67
2023/08/05 01:22:38;;;;;;;1.42;1.33;;;19.80;99.90;;;;;;5153673;27;20193;-67
2023/08/05 01:25:07;;;;;;;1.60;1.50;;;19.80;99.90;;;;;;5147307;27;20270;-67
2023/08/05 01:27:38;;;;;;;1.88;1.50;;;19.80;99.90;;;;;;5148331;27;20179;-67
2023/08/05 01:30:07;;;;;;;1.50;1.40;;;19.80;99.90;;;;;;5154421;27;20218;-66
2023/08/05 01:32:36;;;;;;;1.80;1.70;;;19.80;99.90;;;;;;5143811;27;20291;-66
2023/08/05 01:35:04;;;;;;;2.70;1.77;;;19.80;99.90;;;;;;5135072;27;20576;-66
2023/08/05 01:37:31;;;;;;;2.20;1.83;;;19.80;99.90;;;;;;5151779;27;20206;-66
2023/08/05 01:39:58;;;;;;;1.73;1.63;;;19.90;99.90;;;;;;5148607;27;20744;-66
2023/08/05 01:42:25;;;;;;;2.38;1.63;;;19.80;99.90;;;;;;5153933;27;20221;-66
2023/08/05 01:44:53;;;;;;;1.55;1.45;;;19.80;99.90;;;;;;5154194;27;20662;-66
2023/08/05 01:47:21;;;;;;;2.22;1.50;;;19.70;99.90;;;;;;5147448;27;20187;-66
2023/08/05 01:49:48;;;;;;;1.17;1.13;;;19.70;99.90;;;;;;5132057;27;20205;-66
2023/08/05 01:52:15;;;;;;;1.50;1.40;;;19.70;99.90;;;;;;5144754;27;20195;-66
2023/08/05 01:54:42;;;;;;;2.45;1.10;;;19.60;99.90;;;;;;5130886;27;20247;-67
2023/08/05 01:57:09;;;;;;;1.40;1.30;;;19.60;99.90;;;;;;5152894;27;20221;-66
2023/08/05 01:59:36;;;;;;;1.27;1.23;;;19.60;99.90;;;;;;5124384;27;20190;-66
2023/08/05 02:02:05;;;;;;;1.50;1.40;;;19.60;99.90;;;;;;5131113;27;20198;-67
2023/08/05 02:04:32;;;;;;;1.27;1.20;;;19.60;99.90;;;;;;5125041;27;20657;-67
2023/08/05 02:06:59;;;;;;;1.30;1.25;;;19.60;99.90;;;;;;5146751;27;20192;-67
2023/08/05 02:09:26;;;;;;;2.40;1.40;;;19.60;99.90;;;;;;5131817;27;20222;-67
2023/08/05 02:11:54;;;;;;;1.15;1.15;;;19.60;99.90;;;;;;5134445;27;20542;-67
2023/08/05 02:14:21;;;;;;;1.15;1.13;;;19.60;99.90;;;;;;5131907;27;20781;-67
2023/08/05 02:16:48;;;;;;;1.08;1.08;;;19.60;99.90;;;;;;5147264;27;20202;-67
2023/08/05 02:19:16;;;;;;;1.30;1.20;;;19.60;99.90;;;;;;5148709;27;20186;-65
2023/08/05 02:21:43;;;;;;;1.25;1.20;;;19.60;99.90;;;;;;5131047;27;20281;-65
2023/08/05 02:24:11;;;;;;;1.40;0.90;;;19.60;99.90;;;;;;5130296;27;20621;-66
2023/08/05 02:26:38;;;;;;;1.15;1.02;;;19.60;99.90;;;;;;5133102;27;20191;-66
2023/08/05 02:29:05;;;;;;;1.52;1.17;;;19.60;99.90;;;;;;5129578;27;20206;-66
2023/08/05 02:31:32;;;;;;;1.20;1.20;;;19.60;99.90;;;;;;5152442;27;20239;-66
2023/08/05 02:33:59;;;;;;;1.00;1.00;;;19.60;99.90;;;;;;5150804;27;20206;-66
2023/08/05 02:36:28;;;;;;;1.25;1.00;;;19.60;99.90;;;;;;5146276;27;20195;-66
2023/08/05 02:38:55;;;;;;;1.25;1.15;;;19.60;99.90;;;;;;5150368;27;20657;-66
2023/08/05 02:41:22;;;;;;;0.70;0.70;;;19.60;99.90;;;;;;5152363;27;20199;-66
2023/08/05 02:43:52;;;;;;;1.40;1.30;;;19.60;99.90;;;;;;5147125;27;20202;-67
2023/08/05 02:46:19;;;;;;;1.63;1.50;;;19.60;99.90;;;;;;5151468;27;20194;-66
2023/08/05 02:48:46;;;;;;;1.50;1.40;;;19.60;99.90;;;;;;5129592;27;20620;-66
2023/08/05 02:51:13;;;;;;;1.23;1.23;;;19.60;99.90;;;;;;5133067;27;20202;-66
2023/08/05 02:53:42;;;;;;;1.60;1.50;;;19.60;99.90;;;;;;5148078;27;20596;-66
2023/08/05 02:56:09;;;;;;;1.42;1.38;;;19.60;99.90;;;;;;5149335;27;20327;-66
2023/08/05 02:58:36;;;;;;;1.30;1.20;;;19.60;99.90;;;;;;5150125;27;20573;-66
2023/08/05 03:01:08;;;;;;;1.58;1.48;;;19.60;99.90;;;;;;5143361;27;20300;-66
2023/08/05 03:03:35;;;;;;;1.65;1.55;;;19.60;99.90;;;;;;5141745;27;20252;-66
2023/08/05 03:06:02;;;;;;;1.25;1.20;;;19.50;99.90;;;;;;5150922;27;20604;-66
2023/08/05 03:08:29;;;;;;;1.33;1.23;;;19.50;99.90;;;;;;5151946;27;20215;-65
2023/08/05 03:10:59;;;;;;;1.30;1.15;;;19.50;99.90;;;;;;5129050;27;20576;-64
2023/08/05 03:13:27;;;;;;;1.40;1.30;;;19.50;99.90;;;;;;5132972;27;20190;-66
2023/08/05 03:15:58;;;;;;;4.00;1.42;;;19.50;99.90;;;;;;5130012;27;20198;-66
2023/08/05 03:18:25;;;;;;;1.40;1.30;;;19.50;99.90;;;;;;5125562;27;20202;-66
2023/08/05 03:20:52;;;;;;;1.60;1.45;;;19.50;99.90;;;;;;5133623;27;20206;-67
2023/08/05 03:23:19;;;;;;;1.40;1.30;;;19.50;99.90;;;;;;5131016;27;20616;-66
2023/08/05 03:25:51;;;;;;;1.15;1.15;;;19.50;99.90;;;;;;5128733;27;20195;-66
2023/08/05 03:28:19;;;;;;;1.67;1.45;;;19.40;99.90;;;;;;5151519;27;20654;-66
2023/08/05 03:30:50;;;;;;;2.00;1.48;;;19.40;99.90;;;;;;5130561;27;20212;-66
2023/08/05 03:33:23;;;;;;;1.33;1.23;;;19.40;99.90;;;;;;5130241;27;20658;-66
2023/08/05 03:35:51;;;;;;;1.65;1.55;;;19.40;99.90;;;;;;5150889;27;20602;-65
2023/08/05 03:38:22;;;;;;;1.70;1.60;;;19.40;99.90;;;;;;5127618;27;20217;-66
2023/08/05 03:40:49;;;;;;;1.40;1.30;;;19.50;99.90;;;;;;5130884;27;20271;-66
2023/08/05 03:43:16;;;;;;;2.38;1.30;;;19.50;99.90;;;;;;5132327;27;20259;-66
2023/08/05 03:45:51;;;;;;;1.30;1.20;;;19.50;99.90;;;;;;5144233;27;20267;-66
2023/08/05 03:48:18;;;;;;;3.42;1.30;;;19.40;99.90;;;;;;5125489;27;20190;-67
2023/08/05 03:50:45;;;;;;;1.25;1.25;;;19.40;99.90;;;;;;5132717;27;20615;-66
2023/08/05 03:53:12;;;;;;;1.30;1.30;;;19.40;99.90;;;;;;5144392;27;20190;-66
2023/08/05 03:55:40;;;;;;;1.15;1.10;;;19.40;99.90;;;;;;5132933;27;20549;-65
2023/08/05 03:58:08;;;;;;;1.20;1.10;;;19.40;99.90;;;;;;5133234;27;20306;-66
2023/08/05 04:00:36;;;;;;;1.55;1.45;;;19.40;99.90;;;;;;5143452;27;20728;-66
2023/08/05 04:03:05;;;;;;;2.00;1.80;;;19.40;99.90;;;;;;5139918;27;20973;-66
2023/08/05 04:05:32;;;;;;;1.98;1.88;;;19.30;99.90;;;;;;5150853;27;20239;-67
2023/08/05 04:08:00;;;;;;;2.00;1.90;;;19.40;99.90;;;;;;5124956;27;20228;-66
2023/08/05 04:10:30;;;;;;;2.05;1.92;;;19.40;99.90;;;;;;5149407;27;20195;-66
2023/08/05 04:12:58;;;;;;;1.40;1.30;;;19.40;99.90;;;;;;5150621;27;20201;-65
2023/08/05 04:15:28;;;;;;;1.50;1.40;;;19.40;99.90;;;;;;5142491;27;20294;-66
2023/08/05 04:17:59;;;;;;;2.00;1.80;;;19.50;99.90;;;;;;5131058;27;20221;-65
2023/08/05 04:20:28;;;;;;;2.10;2.00;;;19.50;99.90;;;;;;5151332;27;20689;-66
2023/08/05 04:22:55;;;;;;;2.13;2.00;;;19.50;99.90;;;;;;5128204;27;20282;-66
2023/08/05 04:25:24;;;;;;;2.05;1.88;;;19.40;99.90;;;;;;5128449;27;20198;-66
2023/08/05 04:27:51;;;;;;;1.70;1.60;;;19.50;99.90;;;;;;5147752;27;20251;-66
2023/08/05 04:30:18;;;;;;;2.15;1.65;;;19.50;99.90;;;;;;5147195;27;20251;-66
2023/08/05 04:32:45;;;;;;;1.83;1.67;;;19.50;99.90;;;;;;5149636;27;20254;-66
2023/08/05 04:35:12;;;;;;;1.70;1.60;;;19.50;99.90;;;;;;5148805;27;20186;-66
2023/08/05 04:37:40;;;;;;;1.77;1.67;;;19.50;99.90;;;;;;5146714;27;20215;-66
2023/08/05 04:40:11;;;;;;;1.83;1.45;;;19.50;99.90;;;;;;5144654;27;20270;-65
2023/08/05 04:42:38;;;;;;;1.50;1.42;;;19.50;99.90;;;;;;5145323;27;21409;-66
2023/08/05 04:45:06;;;;;;;1.40;1.30;;;19.50;99.90;;;;;;5149354;27;20205;-66
2023/08/05 04:47:33;;;;;;;1.50;1.50;;;19.60;99.90;;;;;;5157212;27;20644;-64
2023/08/05 04:50:00;;;;;;;1.65;1.50;;;19.60;99.90;;;;;;5160721;27;20209;-65
2023/08/05 04:52:28;;;;;;;1.40;1.40;;;19.60;99.90;;;;;;5160788;27;20207;-65
2023/08/05 04:54:57;;;;;;;1.45;1.35;;;19.60;99.90;;;;;;5159545;27;20202;-66
2023/08/05 04:57:27;;;;;;;1.55;1.45;;;19.60;99.90;;;;;;5148133;27;20191;-67
2023/08/05 04:59:54;;;;;;;1.20;1.20;;;19.70;99.90;;;;;;5149964;27;20201;-66
2023/08/05 05:02:21;;;;;;;1.40;1.30;;;19.70;99.90;;;;;;5149752;27;20191;-67
2023/08/05 05:04:48;;;;;;;1.65;1.50;;;19.70;99.90;;;;;;5141519;27;20182;-67
2023/08/05 05:07:15;;;;;;;1.90;1.55;;;19.80;99.90;;;;;;5154822;27;20595;-67
2023/08/05 05:09:42;;;;;;;4.72;1.60;;;19.80;99.90;;;;;;5151201;27;20228;-67
2023/08/05 05:12:11;;;;;;;1.67;1.58;;;19.90;99.90;;;;;;5129599;27;20213;-67
2023/08/05 05:14:44;;;;;;;1.67;1.58;;;19.90;99.90;;;;;;5154869;27;20235;-65
2023/08/05 05:17:14;;;;;;;1.60;1.50;;;19.90;99.90;;;;;;5152835;27;20239;-65
2023/08/05 05:19:44;;;;;;;6.22;1.52;;;20.00;99.90;;;;;;5147054;27;20199;-65
2023/08/05 05:22:16;;;;;;;1.50;1.40;;;20.00;99.90;;;;;;5151987;27;20274;-66
2023/08/05 05:24:43;;;;;;;2.05;1.70;;;20.10;99.90;;;;;;5125413;27;20286;-66
2023/08/05 05:27:13;;;;;;;1.70;1.60;;;20.10;99.90;;;;;;5150020;27;20553;-66
2023/08/05 05:29:41;;;;;;;1.38;1.30;;;20.20;99.90;;;;;;5152966;27;20174;-66
2023/08/05 05:32:08;;;;;;;1.67;1.35;;;20.20;99.90;;;;;;5150090;27;20192;-65
2023/08/05 05:34:38;;;;;;;4.75;1.30;;;20.20;99.90;;;;;;5133652;27;20197;-66
2023/08/05 05:37:05;;;;;;;1.40;1.30;;;20.30;99.90;;;;;;5153507;27;20638;-66
2023/08/05 05:39:33;;;;;;;1.33;1.23;;;20.30;99.90;;;;;;5149783;27;20199;-66
2023/08/05 05:42:00;;;;;;;1.23;1.20;;;20.30;99.90;;;;;;5132426;27;20210;-66
2023/08/05 05:44:29;;;;;;;1.20;1.05;;;20.30;99.90;;;;;;5154097;27;20198;-66
2023/08/05 05:46:56;;;;;;;1.52;1.42;;;20.30;99.90;;;;;;5148653;27;20194;-66
2023/08/05 05:49:23;;;;;;;1.35;1.35;;;20.40;99.90;;;;;;5150767;27;20294;-66
2023/08/05 05:51:50;;;;;;;1.40;1.30;;;20.40;99.90;;;;;;5153577;27;20247;-65
2023/08/05 05:54:17;;;;;;;1.00;0.90;;;20.40;99.90;;;;;;5147665;27;20247;-66
2023/08/05 05:56:45;;;;;;;0.98;0.98;;;20.50;99.90;;;;;;5132933;27;20205;-65
2023/08/05 05:59:12;;;;;;;1.00;1.00;;;20.50;99.90;;;;;;5152646;27;20217;-66
2023/08/05 06:01:40;;;;;;;0.80;0.80;;;20.60;99.90;;;;;;5147532;27;20273;-66
2023/08/05 06:04:09;;;;;;;1.55;1.45;;;20.60;99.90;;;;;;5150597;27;20630;-65
2023/08/05 06:06:36;;;;;;;2.30;1.60;;;20.60;99.90;;;;;;5149506;27;20226;-66
2023/08/05 06:09:04;;;;;;;2.63;1.60;;;20.70;99.90;;;;;;5146498;27;20897;-66
2023/08/05 06:11:32;;;;;;;1.30;1.20;;;20.70;99.90;;;;;;5152516;27;20197;-66
2023/08/05 06:13:59;;;;;;;1.73;1.60;;;20.80;99.90;;;;;;5153924;27;20197;-66
2023/08/05 06:16:26;;;;;;;1.02;1.02;;;20.80;99.90;;;;;;5146803;27;20218;-66
2023/08/05 06:18:55;;;;;;;1.60;1.50;;;20.90;99.90;;;;;;5151762;27;20267;-66
2023/08/05 06:21:22;;;;;;;2.25;1.70;;;21.00;99.90;;;;;;5133749;27;20243;-66
2023/08/05 06:23:49;;;;;;;1.83;1.73;;;21.00;99.90;;;;;;5127673;27;20665;-66
2023/08/05 06:26:16;;;;;;;1.50;1.40;;;21.00;99.90;;;;;;5150086;27;20199;-66
2023/08/05 06:28:43;;;;;;;2.08;1.50;;;21.10;99.90;;;;;;5150633;27;20198;-66
2023/08/05 06:31:10;;;;;;;1.45;1.35;;;21.10;99.90;;;;;;5147147;27;20665;-65
2023/08/05 06:33:37;;;;;;;2.30;2.05;;;21.10;99.90;;;;;;5152350;27;20251;-66
2023/08/05 06:36:06;;;;;;;2.63;2.10;;;21.20;99.90;;;;;;5150476;27;20641;-65
2023/08/05 06:38:33;;;;;;;1.60;1.50;;;21.20;99.90;;;;;;5148078;27;20701;-66
2023/08/05 06:41:00;;;;;;;1.73;1.63;;;21.20;99.90;;;;;;5130298;27;20259;-66
2023/08/05 06:43:27;;;;;;;1.70;1.50;;;21.30;99.90;;;;;;5150379;27;20190;-66
2023/08/05 06:45:54;;;;;;;1.65;1.55;;;21.40;99.90;;;;;;5146584;27;20281;-66
2023/08/05 06:48:23;;;;;;;1.60;1.50;;;21.30;99.90;;;;;;5150280;27;20257;-66
2023/08/05 06:50:50;;;;;;;2.30;1.90;;;21.40;99.90;;;;;;5146474;27;20202;-66
2023/08/05 06:53:18;;;;;;;2.88;1.75;;;21.40;99.90;;;;;;5149336;27;20246;-66
2023/08/05 06:55:47;;;;;;;1.67;1.48;;;21.40;99.90;;;;;;5150632;27;20248;-65
2023/08/05 06:58:14;;;;;;;1.48;1.38;;;21.50;99.90;;;;;;5127016;27;20232;-66
2023/08/05 07:00:41;;;;;;;1.63;1.05;;;21.50;99.90;;;;;;5151983;27;20202;-66
2023/08/05 07:03:08;;;;;;;1.92;1.40;;;21.50;99.90;;;;;;5148241;27;20214;-66
2023/08/05 07:05:36;;;;;;;1.25;1.13;;;21.50;99.90;;;;;;5142517;27;20666;-67
2023/08/05 07:08:03;;;;;;;1.48;1.27;;;21.60;99.90;;;;;;5150950;27;20223;-66
2023/08/05 07:10:32;;;;;;;1.40;0.88;;;21.60;99.90;;;;;;5148191;27;20234;-66
2023/08/05 07:13:01;;;;;;;4.75;1.17;;;21.60;99.90;;;;;;5145998;27;20261;-66
2023/08/05 07:15:29;;;;;;;0.77;0.77;;;21.70;99.90;;;;;;5152237;27;20201;-67
2023/08/05 07:17:56;;;;;;;0.70;0.70;;;21.70;99.90;;;;;;5150286;27;20195;-66
2023/08/05 07:20:23;;;;;;;0.77;0.77;;;21.70;99.90;;;;;;5146014;27;20199;-66
2023/08/05 07:22:50;;;;;;;0.80;0.80;;;21.60;99.90;;;;;;5143627;27;20559;-66
2023/08/05 07:25:17;;;;;;;0.90;0.90;;;21.80;99.90;;;;;;5150676;27;20294;-66
2023/08/05 07:27:45;;;;;;;0.90;0.80;;;21.90;99.90;;;;;;5141384;27;20225;-66
2023/08/05 07:30:13;;;;;;;0.70;0.65;;;21.90;99.90;;;;;;5151501;27;20186;-66
2023/08/05 07:32:40;;;;;;;1.10;1.00;;;21.90;99.90;;;;;;5149972;27;20310;-66
2023/08/05 07:35:08;;;;;;;1.33;0.73;;;22.00;99.90;;;;;;5145402;27;20218;-66
2023/08/05 07:37:35;;;;;;;1.38;0.90;;;22.00;99.90;;;;;;5148830;27;20690;-66
2023/08/05 07:40:05;;;;;;;1.65;0.80;;;22.10;99.90;;;;;;5144711;27;20205;-66
2023/08/05 07:42:34;;;;;;;1.20;1.10;;;22.10;99.90;;;;;;5147897;27;20217;-66
2023/08/05 07:45:07;;;;;;;1.10;1.00;;;22.10;99.90;;;;;;5124441;27;20218;-66
2023/08/05 07:47:39;;;;;;;1.75;1.20;;;22.10;99.90;;;;;;5145533;27;20237;-66
2023/08/05 07:50:09;;;;;;;1.10;1.00;;;22.10;99.90;;;;;;5151041;27;20196;-66
2023/08/05 07:52:36;;;;;;;1.27;0.80;;;22.20;99.90;;;;;;5149239;27;20270;-66
2023/08/05 07:55:03;;;;;;;1.15;1.05;;;22.20;99.90;;;;;;5144079;27;20277;-66
2023/08/05 07:57:30;;;;;;;2.28;0.95;;;22.10;99.90;;;;;;5150712;27;20190;-66
2023/08/05 07:59:58;;;;;;;1.45;0.98;;;22.10;99.90;;;;;;5151270;27;20530;-66
2023/08/05 08:02:26;;;;;;;1.25;1.15;;;22.10;99.90;;;;;;5145919;27;20298;-66
2023/08/05 08:04:54;;;;;;;0.80;0.80;;;22.10;99.90;;;;;;5130943;27;20293;-66
2023/08/05 08:07:21;;;;;;;0.73;0.73;;;22.00;99.90;;;;;;5148865;27;20245;-66
2023/08/05 08:09:48;;;;;;;1.65;0.90;;;22.10;99.90;;;;;;5147308;27;20253;-66
2023/08/05 08:12:16;;;;;;;0.88;0.77;;;22.10;99.90;;;;;;5150154;27;20282;-66
2023/08/05 08:14:43;;;;;;;0.90;0.90;;;22.20;99.90;;;;;;5127861;27;20565;-67
2023/08/05 08:17:10;;;;;;;1.05;0.80;;;22.20;99.90;;;;;;5146859;27;20225;-66
2023/08/05 08:19:38;;;;;;;0.93;0.90;;;22.20;99.90;;;;;;5150864;27;20241;-66
2023/08/05 08:22:06;;;;;;;0.70;0.70;;;22.10;99.90;;;;;;5144320;27;20195;-66
2023/08/05 08:24:33;;;;;;;0.82;0.82;;;22.20;99.90;;;;;;5149288;27;20202;-66
2023/08/05 08:27:00;;;;;;;1.23;0.80;;;22.20;99.90;;;;;;5150255;27;20629;-66
2023/08/05 08:29:27;;;;;;;0.60;0.60;;;22.20;99.90;;;;;;5146366;27;20194;-66
2023/08/05 08:31:54;;;;;;;0.63;0.63;;;22.20;99.90;;;;;;5129074;27;20722;-66
2023/08/05 08:34:21;;;;;;;0.70;0.70;;;22.20;99.90;;;;;;5150864;27;20559;-66
2023/08/05 08:36:50;;;;;;;1.65;0.90;;;22.20;99.90;;;;;;5147259;27;20718;-65
2023/08/05 08:39:17;;;;;;;1.27;0.57;;;22.20;99.90;;;;;;5156422;27;20254;-65
2023/08/05 08:41:46;;;;;;;0.82;0.82;;;22.20;99.90;;;;;;5152166;27;20694;-65
2023/08/05 08:44:17;;;;;;;0.80;0.80;;;22.20;99.90;;;;;;5155016;27;20263;-65
2023/08/05 08:46:45;;;;;;;1.58;0.60;;;22.20;99.90;;;;;;5146249;27;20386;-65
2023/08/05 08:49:14;;;;;;;0.82;0.82;;;22.20;99.90;;;;;;5152192;27;20634;-66
2023/08/05 08:51:43;;;;;;;0.70;0.70;;;22.20;99.90;;;;;;5150675;27;20274;-66
2023/08/05 08:54:14;;;;;;;1.00;0.73;;;22.20;99.90;;;;;;5155100;27;20199;-66
2023/08/05 08:56:41;;;;;;;0.73;0.73;;;22.20;99.90;;;;;;5152305;27;20214;-66
2023/08/05 08:59:08;;;;;;;0.85;0.70;;;22.20;99.90;;;;;;5133666;27;20259;-66
2023/08/05 09:01:39;;;;;;;0.65;0.65;;;22.20;99.90;;;;;;5152940;27;20268;-66
2023/08/05 09:04:08;;;;;;;0.68;0.68;;;22.20;99.90;;;;;;5131991;27;20203;-66
2023/08/05 09:06:38;;;;;;;0.88;0.68;;;22.30;99.90;;;;;;5154248;27;20190;-66
2023/08/05 09:09:05;;;;;;;2.50;0.95;;;22.30;99.90;;;;;;5153750;27;20219;-65
2023/08/05 09:11:34;;;;;;;0.77;0.77;;;22.30;99.90;;;;;;5146992;27;20182;-66
2023/08/05 09:14:03;;;;;;;0.95;0.70;;;22.40;99.90;;;;;;5132587;27;20569;-66
2023/08/05 09:16:30;;;;;;;1.17;0.90;;;22.40;99.90;;;;;;5154638;27;20284;-65
2023/08/05 09:19:00;;;;;;;1.25;1.15;;;22.40;99.90;;;;;;5130513;27;20577;-66
2023/08/05 09:21:31;;;;;;;1.42;1.15;;;22.40;99.90;;;;;;5153944;27;20194;-66
2023/08/05 09:23:58;;;;;;;2.30;1.23;;;22.40;99.90;;;;;;5153654;27;20205;-66
2023/08/05 09:26:29;;;;;;;1.60;1.00;;;22.40;99.90;;;;;;5144762;27;20273;-66
2023/08/05 09:28:59;;;;;;;1.27;0.90;;;22.40;99.90;;;;;;5153315;27;20190;-65
2023/08/05 09:31:26;;;;;;;0.85;0.85;;;22.50;99.90;;;;;;5152550;27;20728;-66
2023/08/05 09:33:53;;;;;;;1.10;0.70;;;22.50;99.90;;;;;;5149138;27;20190;-65
2023/08/05 09:36:22;;;;;;;0.60;0.60;;;22.50;99.90;;;;;;5154299;27;20198;-65
2023/08/05 09:39:02;;;;;;;0.70;0.70;;;22.50;99.90;;;;;;5153126;27;20218;-66
2023/08/05 09:41:31;;;;;;;0.90;0.90;;;22.50;99.90;;;;;;5147487;27;20213;-66
2023/08/05 09:44:00;;;;;;;1.95;1.10;;;22.50;99.90;;;;;;5153036;27;20212;-66
2023/08/05 09:46:38;;;;;;;0.80;0.80;;;22.60;99.90;;;;;;5135010;27;20207;-66
2023/08/05 09:49:07;;;;;;;1.92;1.30;;;22.60;99.90;;;;;;5148816;27;20225;-66
2023/08/05 09:51:35;;;;;;;2.17;1.25;;;22.60;99.90;;;;;;5147394;27;20198;-66
2023/08/05 09:54:08;;;;;;;1.08;0.90;;;22.60;99.90;;;;;;5151049;27;20191;-65
2023/08/05 09:56:37;;;;;;;1.00;1.00;;;22.60;99.90;;;;;;5151930;27;20186;-66
2023/08/05 09:59:07;;;;;;;1.38;0.95;;;22.70;99.90;;;;;;5152845;27;20197;-67
2023/08/05 10:01:36;;;;;;;1.00;1.00;;;22.70;99.90;;;;;;5148105;27;20190;-66
2023/08/05 10:04:05;;;;;;;1.10;1.00;;;22.70;99.90;;;;;;5145579;27;20187;-66
2023/08/05 10:06:35;;;;;;;0.75;0.75;;;22.70;99.90;;;;;;5153688;27;20645;-65
2023/08/05 10:09:02;;;;;;;1.00;1.00;;;22.70;99.90;;;;;;5148030;27;20271;-67
2023/08/05 10:11:30;;;;;;;1.15;1.05;;;22.70;99.90;;;;;;5148868;27;20191;-66
2023/08/05 10:13:57;;;;;;;1.65;1.30;;;22.60;99.90;;;;;;5153103;27;20203;-66
2023/08/05 10:16:26;;;;;;;1.08;0.98;;;22.70;99.90;;;;;;5148332;27;20182;-66
2023/08/05 10:18:53;;;;;;;1.00;1.00;;;22.60;99.90;;;;;;5148768;27;21084;-66
2023/08/05 10:21:37;;;;;;;0.75;0.75;;;22.70;99.90;;;;;;5152092;27;20216;-66
2023/08/05 10:24:04;;;;;;;1.00;0.77;;;22.60;99.90;;;;;;5147694;27;20698;-66
2023/08/05 10:26:45;;;;;;;1.67;1.10;;;22.60;99.90;;;;;;5150969;27;20218;-66
2023/08/05 10:29:27;;;;;;;0.90;0.90;;;22.60;99.90;;;;;;5149475;27;20552;-66
2023/08/05 10:32:10;;;;;;;1.35;0.95;;;22.60;99.90;;;;;;5149865;27;20258;-66
2023/08/05 10:34:37;;;;;;;0.60;0.60;;;22.60;99.90;;;;;;5147220;27;20197;-66
2023/08/05 10:37:04;;;;;;;0.60;0.60;;;22.60;99.90;;;;;;5144723;27;20199;-66
2023/08/05 10:39:46;;;;;;;0.63;0.63;;;22.60;99.90;;;;;;5151148;27;20206;-66
2023/08/05 10:42:34;;;;;;;0.55;0.55;;;22.60;99.90;;;;;;5148873;27;20236;-66
2023/08/05 10:45:04;;;;;;;0.60;0.60;;;22.60;99.90;;;;;;5130975;27;20203;-66
2023/08/05 10:47:34;;;;;;;0.60;0.60;;;22.60;99.90;;;;;;5133708;27;20606;-66
2023/08/05 10:50:02;;;;;;;0.82;0.80;;;22.70;99.90;;;;;;5150956;27;20606;-66
2023/08/05 10:52:30;;;;;;;0.65;0.60;;;22.70;99.90;;;;;;5144728;27;20190;-66
2023/08/05 10:55:00;;;;;;;0.60;0.60;;;22.80;99.90;;;;;;5126571;27;20198;-67
2023/08/05 10:57:47;;;;;;;1.05;0.60;;;22.80;99.90;;;;;;5150582;27;20271;-67
2023/08/05 11:00:22;;;;;;;1.33;0.50;;;22.80;99.90;;;;;;5128595;27;20211;-67
2023/08/05 11:03:30;;;;;;;0.88;0.88;;;22.90;99.90;;;;;;5151037;27;20609;-66
2023/08/05 11:06:00;;;;;;;1.10;1.10;;;22.90;99.90;;;;;;5146369;27;20191;-66
2023/08/05 11:08:30;;;;;;;1.10;1.00;;;22.90;99.90;;;;;;5151412;27;20238;-65
2023/08/05 11:11:00;;;;;;;0.95;0.95;;;23.00;99.90;;;;;;5151547;27;20243;-66
2023/08/05 11:13:27;;;;;;;1.20;0.95;;;23.00;99.90;;;;;;5145315;27;20218;-66
2023/08/05 11:16:05;;;;;;;0.85;0.85;;;23.00;99.90;;;;;;5152271;27;20745;-66
2023/08/05 11:18:34;;;;;;;3.20;1.25;;;23.00;99.90;;;;;;5150648;27;20553;-66
2023/08/05 11:21:02;;;;;;;1.20;0.85;;;23.00;99.90;;;;;;5131212;27;20576;-66
2023/08/05 11:23:30;;;;;;;1.00;1.00;;;23.00;99.90;;;;;;5149594;27;20314;-66
2023/08/05 11:26:00;;;;;;;1.00;1.00;;;23.00;99.90;;;;;;5149414;27;20220;-66
2023/08/05 11:28:28;;;;;;;0.90;0.90;;;23.00;99.90;;;;;;5145878;27;20197;-66
2023/08/05 11:30:56;;;;;;;1.88;1.13;;;23.00;99.90;;;;;;5152019;27;20551;-66
2023/08/05 11:33:23;;;;;;;1.67;1.20;;;23.00;99.90;;;;;;5149911;27;20190;-66
2023/08/05 11:35:55;;;;;;;1.38;0.90;;;23.00;99.90;;;;;;5145832;27;20274;-66
2023/08/05 11:38:23;;;;;;;2.90;1.00;;;23.00;99.90;;;;;;5151229;27;20194;-66
2023/08/05 11:40:52;;;;;;;1.55;1.10;;;22.90;99.90;;;;;;5150563;27;20761;-67
2023/08/05 11:43:21;;;;;;;0.70;0.70;;;22.90;99.90;;;;;;5143503;27;20277;-67
2023/08/05 11:45:50;;;;;;;0.70;0.70;;;22.90;99.90;;;;;;5133259;27;20565;-67
2023/08/05 11:48:22;;;;;;;0.70;0.70;;;22.90;99.90;;;;;;5149504;27;20202;-67
2023/08/05 11:50:52;;;;;;;1.35;0.70;;;22.90;99.90;;;;;;5145409;27;20540;-67
2023/08/05 11:53:19;;;;;;;0.70;0.70;;;22.90;99.90;;;;;;5150190;27;20614;-65
2023/08/05 11:55:47;;;;;;;1.05;0.70;;;22.90;99.90;;;;;;5144298;27;20582;-66
2023/08/05 11:58:14;;;;;;;1.08;0.80;;;22.90;99.90;;;;;;5147952;27;20294;-65
2023/08/05 12:00:46;;;;;;;0.90;0.77;;;22.90;99.90;;;;;;5151940;27;20372;-66
2023/08/05 12:03:14;;;;;;;0.80;0.77;;;22.90;99.90;;;;;;5134082;27;20186;-66
2023/08/05 12:05:42;;;;;;;0.90;0.60;;;22.80;99.90;;;;;;5151586;27;20195;-66
2023/08/05 12:08:11;;;;;;;0.70;0.70;;;22.80;99.90;;;;;;5151203;27;20242;-66
2023/08/05 12:10:39;;;;;;;1.20;0.80;;;22.80;99.90;;;;;;5127512;27;20215;-66
2023/08/05 12:13:08;;;;;;;0.82;0.82;;;22.80;99.90;;;;;;5143705;27;20554;-66
2023/08/05 12:15:36;;;;;;;0.75;0.70;;;22.90;99.90;;;;;;5155812;27;20329;-66
2023/08/05 12:18:04;;;;;;;1.10;0.75;;;22.90;99.90;;;;;;5150749;27;20191;-65
2023/08/05 12:20:32;;;;;;;0.70;0.70;;;22.90;99.90;;;;;;5146903;27;20217;-66
2023/08/05 12:22:59;;;;;;;0.68;0.68;;;23.00;99.90;;;;;;5154901;27;20274;-65
2023/08/05 12:25:29;;;;;;;0.95;0.80;;;23.00;99.90;;;;;;5152355;27;20194;-65
2023/08/05 12:27:57;;;;;;;0.80;0.80;;;23.10;99.80;;;;;;5170264;27;20186;-64
2023/08/05 12:30:24;;;;;;;0.90;0.90;;;23.10;99.70;;;;;;5171365;27;20209;-65
2023/08/05 12:32:53;;;;;;;1.60;1.20;;;23.10;99.60;;;;;;5152712;27;20202;-65
2023/08/05 12:35:20;;;;;;;1.23;1.13;;;23.10;99.40;;;;;;5157001;27;20236;-66
2023/08/05 12:37:47;;;;;;;1.00;1.00;;;23.20;99.30;;;;;;5150152;27;20535;-65
2023/08/05 12:40:14;;;;;;;1.25;0.90;;;23.20;98.90;;;;;;5135740;27;20554;-66
2023/08/05 12:42:43;;;;;;;1.95;0.70;;;23.20;98.60;;;;;;5154831;27;20187;-66
2023/08/05 12:45:10;;;;;;;1.45;1.00;;;23.30;98.50;;;;;;5148212;27;20225;-66
2023/08/05 12:47:39;;;;;;;1.50;0.90;;;23.30;98.50;;;;;;5154885;27;20239;-66
2023/08/05 12:50:07;;;;;;;0.60;0.60;;;23.30;98.40;;;;;;5149843;27;20236;-66
2023/08/05 12:52:35;;;;;;;0.60;0.60;;;23.30;98.40;;;;;;5150647;27;20217;-66
2023/08/05 12:55:02;;;;;;;0.70;0.70;;;23.40;98.40;;;;;;5155313;27;20195;-66